Terminal Aerodrome Forecast
Issued by NWS Sterling, VA

Current Version | Previous Version | Text Only | Print | Product List | Glossary Off
Versions: 1 2 3 4 5 6 7 8 9 10 11 12 13 14 15 16 17 18 19 20 21 22 23 24 25 26

000
FTUS41 KLWX 312235 AAC
TAFIAD
TAF AMD
KIAD 312235Z 3123/0124 35018G35KT 6SM -SHRA SCT025 BKN050
     FM010100 35010G20KT P6SM SCT025 BKN050
     FM010600 33008KT P6SM SCT250=

USA.gov is the U.S. government's official web portal to all federal, state and local government web resources and services.